Time;durP1;ratioP1;P1;durP2;ratioP2;P2;SDS_P1;SDS_P2;PMS_P1;PMS_P2;Temp;Humidity;BMP_temperature;BMP_pressure;BME280_temperature;BME280_humidity;BME280_pressure;Samples;Min_cycle;Max_cycle;Signal;HPM_P1;HPM_P2
2022/01/01 00:00:44;;;;;;;115.60;69.30;;;;;;;5.69;84.07;97598.21;107655;1269;68799;-69
2022/01/01 00:03:13;;;;;;;75.30;47.40;;;;;;;5.65;84.38;97595.81;107578;1272;69347;-69
2022/01/01 00:05:43;;;;;;;82.60;54.50;;;;;;;5.65;84.32;97602.05;107678;1269;58865;-69
2022/01/01 00:08:12;;;;;;;79.10;47.40;;;;;;;5.65;84.27;97600.14;107726;1273;58922;-69
2022/01/01 00:10:41;;;;;;;65.40;40.60;;;;;;;5.66;84.11;97598.89;107671;1269;69652;-70
2022/01/01 00:13:16;;;;;;;83.50;49.00;;;;;;;5.65;84.02;97605.30;107762;1269;67805;-66
2022/01/01 00:15:45;;;;;;;76.50;48.00;;;;;;;5.64;84.09;97610.89;107672;1269;69742;-67
2022/01/01 00:18:14;;;;;;;48.40;29.50;;;;;;;5.64;84.11;97602.59;107900;1270;58870;-67
2022/01/01 00:20:43;;;;;;;51.80;37.00;;;;;;;5.65;83.99;97597.89;107755;1270;58918;-69
2022/01/01 00:23:11;;;;;;;62.70;39.90;;;;;;;5.63;84.02;97599.30;107678;1269;69931;-69
2022/01/01 00:25:40;;;;;;;51.40;34.40;;;;;;;5.64;84.32;97603.28;107738;1269;68636;-67
2022/01/01 00:28:12;;;;;;;52.00;32.90;;;;;;;5.66;84.36;97605.29;107700;1270;68705;-71
2022/01/01 00:30:41;;;;;;;55.00;36.00;;;;;;;5.67;84.19;97606.07;107712;1270;58933;-69
2022/01/01 00:33:10;;;;;;;61.90;42.70;;;;;;;5.69;84.21;97608.08;107622;1270;58923;-70
2022/01/01 00:35:40;;;;;;;81.00;52.20;;;;;;;5.68;84.31;97606.36;107677;1269;69782;-70
2022/01/01 00:38:09;;;;;;;66.60;40.40;;;;;;;5.66;84.58;97598.33;107835;1266;69284;-70
2022/01/01 00:40:41;;;;;;;60.30;39.50;;;;;;;5.66;84.43;97600.45;107863;1267;69507;-68
2022/01/01 00:43:10;;;;;;;43.40;27.20;;;;;;;5.67;84.37;97599.19;107880;1267;58857;-67
2022/01/01 00:45:39;;;;;;;72.10;48.10;;;;;;;5.68;84.31;97602.06;107868;1267;58812;-68
2022/01/01 00:48:08;;;;;;;51.20;36.30;;;;;;;5.69;84.41;97602.19;107887;1266;69971;-71
2022/01/01 00:50:37;;;;;;;52.00;36.50;;;;;;;5.70;84.40;97593.65;107860;1267;68614;-67
2022/01/01 00:53:06;;;;;;;56.60;38.70;;;;;;;5.72;84.51;97593.40;107830;1267;68558;-70
2022/01/01 00:55:35;;;;;;;39.90;23.50;;;;;;;5.73;84.45;97585.36;107738;1270;58947;-67
2022/01/01 00:58:05;;;;;;;50.20;34.80;;;;;;;5.76;84.38;97581.07;107871;1269;59287;-69
2022/01/01 01:00:34;;;;;;;47.30;33.00;;;;;;;5.75;84.31;97580.23;107864;1267;69991;-67
2022/01/01 01:03:14;;;;;;;52.70;34.90;;;;;;;5.76;84.08;97574.46;107823;1270;67971;-70
2022/01/01 01:05:45;;;;;;;37.80;25.30;;;;;;;5.75;84.14;97572.79;107808;1267;69444;-67
2022/01/01 01:08:17;;;;;;;57.50;39.90;;;;;;;5.77;84.12;97568.39;107882;1265;58913;-68
2022/01/01 01:10:48;;;;;;;41.40;29.50;;;;;;;5.77;84.45;97563.19;107715;1271;58890;-67
2022/01/01 01:13:20;;;;;;;37.80;26.00;;;;;;;5.78;84.28;97561.79;107808;1267;69096;-69
2022/01/01 01:15:49;;;;;;;;;;;;;;;5.78;84.28;97558.13;107821;1267;67901;-68
2022/01/01 01:18:18;;;;;;;58.80;38.30;;;;;;;5.79;84.21;97555.31;107800;1270;69619;-67
2022/01/01 01:20:48;;;;;;;24.40;14.90;;;;;;;5.77;84.29;97548.83;107702;1269;58938;-67
2022/01/01 01:23:17;;;;;;;39.60;25.20;;;;;;;5.77;84.00;97541.23;107822;1267;58983;-70
2022/01/01 01:25:46;;;;;;;45.90;29.80;;;;;;;5.72;84.17;97540.65;107743;1270;70002;-66
2022/01/01 01:28:15;;;;;;;42.80;28.10;;;;;;;5.69;84.27;97543.58;107652;1269;68362;-71
2022/01/01 01:30:46;;;;;;;49.40;32.60;;;;;;;5.69;84.52;97544.77;107841;1267;69425;-67
2022/01/01 01:33:15;;;;;;;59.70;39.30;;;;;;;5.69;84.59;97543.21;107823;1267;58888;-67
2022/01/01 01:35:44;;;;;;;59.70;38.60;;;;;;;5.68;84.43;97543.79;107793;1267;58844;-70
2022/01/01 01:38:13;;;;;;;42.30;29.10;;;;;;;5.70;84.59;97544.20;107823;1267;69734;-70
2022/01/01 01:40:42;;;;;;;29.40;20.10;;;;;;;5.71;84.49;97536.52;107752;1268;68445;-68
2022/01/01 01:43:13;;;;;;;42.20;27.30;;;;;;;5.74;84.36;97540.89;107807;1267;68845;-70
2022/01/01 01:45:44;;;;;;;28.90;19.80;;;;;;;5.75;84.34;97538.05;107884;1267;58932;-70
2022/01/01 01:48:14;;;;;;;31.30;22.30;;;;;;;5.77;84.25;97536.02;107813;1267;58812;-69
2022/01/01 01:50:43;;;;;;;39.60;26.80;;;;;;;5.80;84.21;97530.88;107890;1268;70550;-69
2022/01/01 01:53:13;;;;;;;19.70;14.30;;;;;;;5.81;84.21;97529.42;107868;1267;68692;-69
2022/01/01 01:55:42;;;;;;;31.40;21.00;;;;;;;5.82;84.10;97523.00;107792;1267;67776;-68
2022/01/01 01:58:11;;;;;;;31.80;20.40;;;;;;;5.80;84.20;97521.86;107839;1267;58951;-68
2022/01/01 02:03:28;;;;;;;25.30;18.00;;;;;;;5.82;84.00;97516.42;107834;1270;70747;-67
2022/01/01 02:05:58;;;;;;;25.00;16.70;;;;;;;5.80;83.98;97513.22;107829;1267;67711;-68
2022/01/01 02:08:28;;;;;;;43.40;28.10;;;;;;;5.79;84.14;97510.02;107815;1270;68031;-67
2022/01/01 02:10:57;;;;;;;31.90;22.00;;;;;;;5.78;84.32;97511.44;107808;1267;58891;-69
2022/01/01 02:13:33;;;;;;;28.30;18.50;;;;;;;5.79;84.33;97503.11;107881;1267;59314;-67
2022/01/01 02:18:44;;;;;;;24.00;15.10;;;;;;;5.83;84.15;97505.66;107884;1267;67684;-69
2022/01/01 02:21:14;;;;;;;27.80;18.80;;;;;;;5.84;84.07;97503.17;107869;1269;68619;-67
2022/01/01 02:23:46;;;;;;;23.90;16.60;;;;;;;5.85;84.16;97500.84;107745;1267;58933;-67
2022/01/01 02:26:16;;;;;;;24.00;17.70;;;;;;;5.88;84.14;97501.77;107939;1267;58784;-69
2022/01/01 02:28:48;;;;;;;40.40;25.90;;;;;;;5.90;84.10;97503.71;107730;1269;71029;-69
2022/01/01 02:31:17;;;;;;;30.30;20.50;;;;;;;5.90;84.21;97499.55;107762;1270;67933;-67
2022/01/01 02:33:48;;;;;;;33.60;23.20;;;;;;;5.88;84.06;97501.39;107868;1267;67791;-69
2022/01/01 02:36:31;;;;;;;20.30;13.50;;;;;;;5.83;83.92;97491.48;107797;1269;58883;-68
2022/01/01 02:39:12;;;;;;;27.80;20.00;;;;;;;5.76;84.08;97488.38;108017;1267;58825;-68
2022/01/01 02:41:43;;;;;;;23.50;15.50;;;;;;;5.72;84.22;97485.31;107867;1267;70193;-69
2022/01/01 02:44:12;;;;;;;31.70;22.30;;;;;;;5.69;84.12;97486.16;107878;1267;67887;-70
2022/01/01 02:46:42;;;;;;;24.70;17.70;;;;;;;5.65;84.31;97477.71;107871;1267;69235;-66
2022/01/01 02:49:11;;;;;;;28.20;19.30;;;;;;;5.63;84.41;97475.73;107899;1267;58915;-68
2022/01/01 02:51:41;;;;;;;23.50;14.60;;;;;;;5.60;84.51;97476.73;107891;1270;58874;-67
2022/01/01 02:54:11;;;;;;;18.60;12.20;;;;;;;5.58;84.52;97475.79;107707;1269;70885;-69
2022/01/01 02:56:40;;;;;;;33.10;23.10;;;;;;;5.53;84.92;97475.52;107737;1270;69441;-68
2022/01/01 02:59:10;;;;;;;35.60;22.00;;;;;;;5.47;85.29;97476.73;107874;1267;68476;-68
2022/01/01 03:01:39;;;;;;;28.90;19.10;;;;;;;5.43;85.08;97465.36;107864;1267;59815;-69
2022/01/01 03:04:09;;;;;;;33.50;22.50;;;;;;;5.41;85.22;97467.20;107847;1270;59728;-67
2022/01/01 03:06:39;;;;;;;19.30;13.40;;;;;;;5.38;85.17;97466.46;107870;1267;71555;-70
2022/01/01 03:09:10;;;;;;;31.10;20.40;;;;;;;5.37;85.12;97462.02;107493;1269;68792;-69
2022/01/01 03:11:39;;;;;;;37.20;24.00;;;;;;;5.35;85.26;97462.98;107751;1270;68690;-71
2022/01/01 03:14:10;;;;;;;40.90;26.60;;;;;;;5.33;85.45;97462.95;107917;1263;59721;-69
2022/01/01 03:16:39;;;;;;;30.50;20.90;;;;;;;5.31;85.45;97459.93;107774;1268;59736;-70
2022/01/01 03:19:09;;;;;;;35.50;23.10;;;;;;;5.32;85.43;97456.25;107875;1269;71350;-70
2022/01/01 03:21:39;;;;;;;25.90;17.20;;;;;;;5.32;85.42;97455.22;107810;1270;68553;-69
2022/01/01 03:24:08;;;;;;;21.50;13.30;;;;;;;5.32;85.18;97454.85;107817;1269;68619;-67
2022/01/01 03:26:38;;;;;;;44.10;31.70;;;;;;;5.32;85.34;97456.05;107663;1271;60076;-68
2022/01/01 03:29:08;;;;;;;46.30;29.40;;;;;;;5.29;85.74;97455.36;107834;1267;59670;-68
2022/01/01 03:31:37;;;;;;;43.60;28.60;;;;;;;5.27;85.70;97453.89;107878;1267;70660;-68
2022/01/01 03:34:06;;;;;;;42.90;28.00;;;;;;;5.27;85.77;97446.29;107867;1267;68673;-70
2022/01/01 03:36:36;;;;;;;36.00;23.70;;;;;;;5.28;85.74;97451.43;107802;1269;68781;-68
2022/01/01 03:39:07;;;;;;;43.10;31.00;;;;;;;5.28;85.74;97442.41;107845;1267;60168;-70
2022/01/01 03:41:36;;;;;;;42.90;27.70;;;;;;;5.29;85.82;97444.28;107740;1270;59617;-69
2022/01/01 03:44:06;;;;;;;38.50;26.20;;;;;;;5.29;86.16;97446.00;107853;1267;70852;-70
2022/01/01 03:46:37;;;;;;;45.20;30.80;;;;;;;5.28;86.19;97445.19;107874;1267;68587;-70
2022/01/01 03:49:06;;;;;;;39.80;26.20;;;;;;;5.28;86.26;97442.30;107713;1270;68708;-69
2022/01/01 03:51:35;;;;;;;33.60;22.80;;;;;;;5.27;86.18;97441.95;107763;1268;59658;-70
2022/01/01 03:54:05;;;;;;;34.70;24.40;;;;;;;5.28;86.21;97442.95;107876;1267;59701;-67
2022/01/01 03:56:37;;;;;;;32.80;23.30;;;;;;;5.28;86.31;97439.86;107698;1270;70773;-70
2022/01/01 03:59:06;;;;;;;29.00;19.50;;;;;;;5.28;86.31;97440.88;107899;1267;67444;-67
2022/01/01 04:01:36;;;;;;;26.80;19.10;;;;;;;5.29;86.10;97439.44;107849;1270;69228;-67
2022/01/01 04:04:05;;;;;;;41.40;28.20;;;;;;;5.30;86.00;97434.88;107688;1269;59767;-67
2022/01/01 04:06:35;;;;;;;50.40;33.40;;;;;;;5.30;86.44;97430.59;107890;1267;59752;-67
2022/01/01 04:09:04;;;;;;;46.50;32.30;;;;;;;5.25;86.79;97426.50;107895;1268;71511;-67
2022/01/01 04:11:34;;;;;;;53.60;33.20;;;;;;;5.18;86.87;97423.13;107905;1267;67693;-67
2022/01/01 04:14:04;;;;;;;53.90;33.40;;;;;;;5.13;86.79;97420.23;107965;1270;69477;-67
2022/01/01 04:16:33;;;;;;;56.00;37.80;;;;;;;5.13;86.41;97416.95;107630;1270;59674;-67
2022/01/01 04:19:02;;;;;;;42.50;27.70;;;;;;;5.13;86.62;97414.53;107923;1265;59709;-67
2022/01/01 04:21:32;;;;;;;33.10;20.70;;;;;;;5.15;86.58;97414.45;107849;1267;71405;-67
2022/01/01 04:24:02;;;;;;;;;;;;;;;5.17;86.36;97406.39;107867;1269;67790;-67
2022/01/01 04:26:33;;;;;;;53.40;35.50;;;;;;;5.16;86.39;97410.94;107787;1269;69302;-67
2022/01/01 04:29:03;;;;;;;40.40;28.60;;;;;;;5.14;86.57;97409.48;107711;1269;59734;-68
2022/01/01 04:31:32;;;;;;;55.20;36.00;;;;;;;5.15;86.33;97409.77;107866;1269;59691;-68
2022/01/01 04:34:01;;;;;;;59.60;39.50;;;;;;;5.14;86.83;97413.80;107904;1267;71349;-70
2022/01/01 04:36:31;;;;;;;56.50;38.00;;;;;;;5.11;87.03;97420.67;107816;1270;67882;-69
2022/01/01 04:39:00;;;;;;;51.90;33.40;;;;;;;5.08;87.44;97417.36;107902;1267;69713;-69
2022/01/01 04:41:29;;;;;;;41.30;27.80;;;;;;;5.05;88.13;97421.66;107906;1267;59669;-68
2022/01/01 04:43:58;;;;;;;35.30;24.80;;;;;;;5.04;87.88;97420.84;107929;1267;60109;-69
2022/01/01 04:46:27;;;;;;;20.80;15.50;;;;;;;5.06;87.71;97421.44;107929;1267;71502;-67
2022/01/01 04:48:57;;;;;;;43.80;27.80;;;;;;;5.08;87.65;97417.34;107922;1267;68418;-68
2022/01/01 04:51:26;;;;;;;37.30;26.30;;;;;;;5.07;87.97;97419.97;107900;1267;69493;-68
2022/01/01 04:53:59;;;;;;;37.60;26.00;;;;;;;5.07;87.92;97422.55;107963;1267;59715;-69
2022/01/01 04:56:32;;;;;;;29.50;20.70;;;;;;;5.08;87.85;97427.38;107915;1267;59711;-69
2022/01/01 04:59:03;;;;;;;39.00;25.40;;;;;;;5.08;87.83;97426.52;107830;1269;71197;-68
2022/01/01 05:01:32;;;;;;;32.50;22.20;;;;;;;5.07;87.95;97426.02;107836;1269;68861;-66
2022/01/01 05:04:01;;;;;;;37.50;24.30;;;;;;;5.07;87.83;97425.00;107909;1263;67780;-69
2022/01/01 05:06:32;;;;;;;41.30;27.40;;;;;;;5.06;88.26;97423.83;107847;1264;59728;-70
2022/01/01 05:09:03;;;;;;;39.00;25.80;;;;;;;5.07;88.63;97430.52;107861;1269;59717;-67
2022/01/01 05:11:31;;;;;;;;;;;;;;;5.06;88.47;97431.26;107656;1270;71579;-67
2022/01/01 05:14:01;;;;;;;40.00;24.50;;;;;;;5.06;88.84;97432.48;107828;1268;68436;-69
2022/01/01 05:16:30;;;;;;;30.80;18.70;;;;;;;5.04;89.28;97435.35;107854;1266;69701;-69
2022/01/01 05:18:59;;;;;;;28.10;18.00;;;;;;;5.07;88.65;97436.23;107737;1270;59738;-68
2022/01/01 05:21:32;;;;;;;26.20;16.80;;;;;;;5.10;88.30;97440.40;107815;1269;59688;-69
2022/01/01 05:24:03;;;;;;;33.70;22.40;;;;;;;5.11;88.27;97445.51;107848;1267;70568;-68
2022/01/01 05:26:33;;;;;;;25.30;17.00;;;;;;;5.12;88.69;97454.80;107930;1267;68069;-70
2022/01/01 05:29:02;;;;;;;39.40;24.30;;;;;;;5.15;88.32;97459.55;107891;1267;69305;-69
2022/01/01 05:31:33;;;;;;;24.40;15.70;;;;;;;5.16;88.51;97459.14;107871;1267;59739;-69
2022/01/01 05:34:05;;;;;;;23.20;14.90;;;;;;;5.18;88.31;97459.89;107736;1269;59664;-70
2022/01/01 05:36:34;;;;;;;31.60;19.80;;;;;;;5.21;87.90;97465.78;107862;1268;71149;-70
2022/01/01 05:39:04;;;;;;;40.30;26.90;;;;;;;5.24;87.73;97468.06;107903;1262;66903;-68
2022/01/01 05:41:33;;;;;;;43.70;27.00;;;;;;;5.22;88.27;97465.37;107882;1269;68581;-68
2022/01/01 05:44:03;;;;;;;37.40;25.00;;;;;;;5.22;88.41;97465.89;107901;1267;59723;-70
2022/01/01 05:46:32;;;;;;;34.60;23.10;;;;;;;5.22;88.15;97470.59;107949;1267;59680;-69
2022/01/01 05:49:02;;;;;;;39.70;26.60;;;;;;;5.21;88.13;97473.22;107931;1267;69662;-68
2022/01/01 05:51:31;;;;;;;37.90;26.90;;;;;;;5.19;88.04;97475.23;107899;1267;67888;-68
2022/01/01 05:54:01;;;;;;;34.10;21.20;;;;;;;5.15;88.04;97475.40;107881;1267;68494;-70
2022/01/01 05:56:30;;;;;;;36.10;24.00;;;;;;;5.14;87.94;97476.02;107861;1267;59694;-68
2022/01/01 05:58:59;;;;;;;32.60;22.90;;;;;;;5.15;88.05;97482.83;107860;1268;58882;-68
2022/01/01 06:01:29;;;;;;;33.10;23.10;;;;;;;5.16;88.02;97486.41;107866;1267;71542;-68
2022/01/01 06:03:58;;;;;;;35.40;25.20;;;;;;;5.18;88.06;97485.14;107866;1267;67648;-69
2022/01/01 06:06:27;;;;;;;36.60;24.40;;;;;;;5.18;88.00;97486.34;107838;1267;69504;-68
2022/01/01 06:09:00;;;;;;;37.40;24.80;;;;;;;5.19;88.02;97491.66;107889;1265;59694;-68
2022/01/01 06:11:29;;;;;;;28.20;20.00;;;;;;;5.19;88.05;97493.90;107866;1267;59657;-68
2022/01/01 06:13:58;;;;;;;28.80;20.10;;;;;;;5.20;87.95;97493.48;107867;1269;70596;-68
2022/01/01 06:16:28;;;;;;;24.20;19.20;;;;;;;5.22;87.82;97493.91;107874;1267;67826;-68
2022/01/01 06:18:57;;;;;;;22.20;15.80;;;;;;;5.23;87.73;97502.66;107880;1267;68727;-67
2022/01/01 06:21:28;;;;;;;27.30;22.10;;;;;;;5.23;87.64;97501.64;107856;1267;59692;-67
2022/01/01 06:23:57;;;;;;;30.90;23.10;;;;;;;5.18;87.81;97500.15;107721;1269;59686;-69
2022/01/01 06:26:26;;;;;;;32.70;23.30;;;;;;;5.17;87.79;97504.36;107887;1267;71649;-68
2022/01/01 06:28:55;;;;;;;24.40;19.50;;;;;;;5.12;87.70;97505.27;107901;1269;67729;-67
2022/01/01 06:31:25;;;;;;;26.40;20.10;;;;;;;5.09;87.91;97507.81;107988;1269;68660;-69
2022/01/01 06:33:54;;;;;;;29.80;23.10;;;;;;;5.08;88.01;97511.34;107919;1267;59700;-69
2022/01/01 06:36:25;;;;;;;24.00;17.10;;;;;;;5.08;88.02;97514.98;107794;1267;59661;-68
2022/01/01 06:38:54;;;;;;;29.50;21.50;;;;;;;5.11;87.76;97515.84;107796;1267;72667;-69
2022/01/01 06:41:24;;;;;;;22.90;18.20;;;;;;;5.14;87.84;97516.23;107785;1270;68442;-67
2022/01/01 06:43:53;;;;;;;;;;;;;;;5.18;87.67;97513.64;107793;1267;68692;-70
2022/01/01 06:46:22;;;;;;;17.40;14.60;;;;;;;5.21;87.72;97516.74;107760;1269;59732;-70
2022/01/01 06:48:52;;;;;;;25.20;17.50;;;;;;;5.25;87.68;97517.23;107737;1269;59694;-69
2022/01/01 06:51:21;;;;;;;26.20;21.00;;;;;;;5.27;87.54;97520.92;107897;1266;70949;-69
2022/01/01 06:53:50;;;;;;;27.00;21.00;;;;;;;5.28;87.65;97522.64;107867;1267;68630;-70
2022/01/01 06:56:19;;;;;;;17.80;13.40;;;;;;;5.29;87.59;97521.01;107838;1267;68650;-70
2022/01/01 06:58:47;;;;;;;21.90;16.40;;;;;;;5.32;87.47;97526.23;107680;1269;59755;-70
2022/01/01 07:01:16;;;;;;;15.40;11.30;;;;;;;5.34;87.41;97521.95;107870;1267;59695;-71
2022/01/01 07:03:46;;;;;;;39.40;27.60;;;;;;;5.39;87.08;97522.23;107900;1268;71386;-70
2022/01/01 07:06:15;;;;;;;28.50;21.20;;;;;;;5.38;87.40;97532.66;107881;1267;68726;-70
2022/01/01 07:08:44;;;;;;;39.70;27.80;;;;;;;5.39;87.45;97532.79;107840;1267;68733;-70
2022/01/01 07:11:13;;;;;;;47.80;31.30;;;;;;;5.40;87.57;97529.27;107721;1269;59653;-70
2022/01/01 07:13:42;;;;;;;38.40;25.50;;;;;;;5.40;87.94;97531.20;107781;1269;59664;-70
2022/01/01 07:16:11;;;;;;;29.00;20.00;;;;;;;5.40;87.76;97530.13;107871;1267;70202;-72
2022/01/01 07:18:40;;;;;;;32.50;23.80;;;;;;;5.44;87.60;97532.20;107853;1267;67892;-70
2022/01/01 07:21:09;;;;;;;28.50;22.10;;;;;;;5.48;87.66;97530.11;107767;1267;69446;-70
2022/01/01 07:23:38;;;;;;;32.40;23.10;;;;;;;5.51;87.70;97529.59;107774;1268;59678;-71
2022/01/01 07:26:08;;;;;;;29.10;20.20;;;;;;;5.53;87.58;97531.56;107869;1267;59661;-70
2022/01/01 07:28:36;;;;;;;23.90;18.80;;;;;;;5.55;87.49;97537.48;107758;1267;72177;-70
2022/01/01 07:31:05;;;;;;;16.90;10.60;;;;;;;5.58;87.37;97544.43;107927;1267;68523;-71
2022/01/01 07:33:34;;;;;;;23.10;16.20;;;;;;;5.61;87.10;97547.59;107895;1270;69467;-71
2022/01/01 07:36:04;;;;;;;16.90;11.20;;;;;;;5.62;87.12;97551.63;107823;1267;59729;-70
2022/01/01 07:38:33;;;;;;;26.60;17.90;;;;;;;5.66;87.00;97553.42;107770;1267;59623;-69
2022/01/01 07:41:02;;;;;;;29.20;20.30;;;;;;;5.65;87.23;97553.95;107665;1266;70843;-70
2022/01/01 07:43:32;;;;;;;40.40;25.30;;;;;;;5.63;87.29;97556.95;107838;1269;67812;-71
2022/01/01 07:46:00;;;;;;;42.50;26.70;;;;;;;5.59;87.72;97554.76;107908;1269;68637;-69
2022/01/01 07:48:30;;;;;;;36.30;25.10;;;;;;;5.51;88.12;97559.30;107992;1270;59698;-67
2022/01/01 07:50:59;;;;;;;38.60;25.50;;;;;;;5.45;88.46;97558.40;107861;1267;59606;-67
2022/01/01 07:53:28;;;;;;;52.40;28.50;;;;;;;5.38;88.82;97562.39;107616;1270;70838;-67
2022/01/01 07:55:57;;;;;;;70.80;32.00;;;;;;;5.33;89.33;97564.00;107626;1269;68565;-67
2022/01/01 07:58:26;;;;;;;90.20;33.50;;;;;;;5.31;89.80;97567.23;107774;1269;68846;-67
2022/01/01 08:00:55;;;;;;;57.60;31.10;;;;;;;5.28;89.96;97569.11;107747;1269;59723;-68
2022/01/01 08:03:25;;;;;;;54.20;32.40;;;;;;;5.27;90.11;97573.31;107816;1267;59688;-68
2022/01/01 08:05:54;;;;;;;54.00;31.90;;;;;;;5.28;90.15;97575.67;107888;1267;71756;-70
2022/01/01 08:08:24;;;;;;;50.30;30.90;;;;;;;5.30;90.09;97574.20;107912;1267;68555;-68
2022/01/01 08:10:53;;;;;;;50.80;30.10;;;;;;;5.33;89.89;97572.84;107754;1269;69446;-67
2022/01/01 08:13:24;;;;;;;33.40;22.80;;;;;;;5.40;89.76;97577.36;107835;1267;59749;-67
2022/01/01 08:15:55;;;;;;;56.10;35.10;;;;;;;5.47;89.54;97578.20;107797;1267;59697;-67
2022/01/01 08:18:25;;;;;;;49.80;30.20;;;;;;;5.50;89.50;97580.80;107881;1267;71657;-67
2022/01/01 08:20:54;;;;;;;63.80;35.40;;;;;;;5.52;89.37;97576.73;107808;1267;68785;-68
2022/01/01 08:23:23;;;;;;;67.20;40.50;;;;;;;5.51;89.41;97578.68;107834;1266;69691;-68
2022/01/01 08:25:52;;;;;;;58.10;37.30;;;;;;;5.50;89.48;97579.59;107852;1269;59802;-70
2022/01/01 08:28:21;;;;;;;66.70;39.90;;;;;;;5.50;89.72;97571.98;107686;1270;59623;-70
2022/01/01 08:30:50;;;;;;;47.50;31.20;;;;;;;5.54;89.72;97576.45;107912;1269;71560;-70
2022/01/01 08:33:19;;;;;;;48.90;31.50;;;;;;;5.59;89.47;97581.40;107894;1269;68676;-70
2022/01/01 08:35:48;;;;;;;55.70;38.80;;;;;;;5.65;89.37;97582.85;107894;1269;68871;-70
2022/01/01 08:38:17;;;;;;;87.60;52.60;;;;;;;5.69;89.18;97582.45;107797;1270;59646;-67
2022/01/01 08:40:46;;;;;;;71.40;44.00;;;;;;;5.69;89.21;97582.79;107890;1267;59670;-69
2022/01/01 08:43:15;;;;;;;53.40;32.60;;;;;;;5.70;89.15;97588.46;107815;1269;72176;-68
2022/01/01 08:45:43;;;;;;;36.30;23.70;;;;;;;5.72;88.97;97591.83;107855;1267;68562;-70
2022/01/01 08:48:12;;;;;;;65.10;40.40;;;;;;;5.74;88.91;97594.66;107745;1269;69528;-68
2022/01/01 08:50:42;;;;;;;57.10;35.60;;;;;;;5.72;89.07;97596.33;107825;1267;59700;-68
2022/01/01 08:53:11;;;;;;;60.50;38.00;;;;;;;5.67;89.18;97590.34;107835;1267;59606;-70
2022/01/01 08:55:40;;;;;;;66.50;41.50;;;;;;;5.64;89.33;97589.80;107735;1267;71541;-71
2022/01/01 08:59:06;;;;;;;89.50;57.40;;;;;;;5.64;89.24;97590.46;107188;1276;597324;-67
2022/01/01 09:01:35;;;;;;;64.30;43.20;;;;;;;5.58;89.08;97588.67;109141;1260;57642;-68
2022/01/01 09:04:05;;;;;;;53.50;33.80;;;;;;;5.58;88.78;97587.85;109668;1254;57660;-67
2022/01/01 09:06:34;;;;;;;80.20;50.10;;;;;;;5.55;88.80;97586.09;109689;1253;68629;-68
2022/01/01 09:09:03;;;;;;;90.00;53.20;;;;;;;5.52;89.26;97585.02;109691;1252;69060;-66
2022/01/01 09:11:32;;;;;;;106.60;61.30;;;;;;;5.52;89.25;97582.98;109328;1251;540270;-67
2022/01/01 09:14:01;;;;;;;163.60;88.90;;;;;;;5.51;89.45;97584.02;109902;1250;57609;-72
2022/01/01 09:16:31;;;;;;;162.40;88.60;;;;;;;5.51;89.67;97590.42;109966;1249;57623;-66
2022/01/01 09:19:00;;;;;;;61.40;36.00;;;;;;;5.52;90.02;97591.09;110012;1250;68202;-65
2022/01/01 09:21:29;;;;;;;105.30;66.00;;;;;;;5.55;90.06;97591.45;109974;1250;67975;-67
2022/01/01 09:23:58;;;;;;;63.20;41.40;;;;;;;5.59;90.01;97594.90;109888;1250;68489;-66
2022/01/01 09:26:27;;;;;;;69.70;42.60;;;;;;;5.60;90.17;97597.91;109884;1250;58202;-65
2022/01/01 09:28:56;;;;;;;68.80;42.40;;;;;;;5.63;90.30;97599.34;109880;1250;58054;-65
2022/01/01 09:31:28;;;;;;;62.10;38.50;;;;;;;5.68;90.08;97608.11;109881;1251;69965;-67
2022/01/01 09:33:57;;;;;;;48.80;31.90;;;;;;;5.71;90.05;97609.33;109885;1250;68692;-68
2022/01/01 09:36:27;;;;;;;55.20;34.10;;;;;;;5.75;90.02;97611.05;109873;1250;69580;-67
2022/01/01 09:38:56;;;;;;;86.00;54.30;;;;;;;5.79;90.08;97603.22;109925;1250;58152;-66
2022/01/01 09:41:26;;;;;;;70.40;44.70;;;;;;;5.82;89.98;97607.38;110247;1247;58144;-68
2022/01/01 09:43:55;;;;;;;53.50;33.00;;;;;;;5.87;89.91;97612.70;110227;1247;70643;-69
2022/01/01 09:46:28;;;;;;;31.90;21.20;;;;;;;5.94;89.86;97607.87;110202;1247;68824;-68
2022/01/01 09:48:57;;;;;;;27.40;16.70;;;;;;;6.01;89.57;97606.27;110225;1247;68662;-68
2022/01/01 09:51:26;;;;;;;36.40;24.50;;;;;;;6.07;89.27;97602.33;110042;1247;58102;-64
2022/01/01 09:53:55;;;;;;;53.10;34.30;;;;;;;6.12;88.98;97602.76;110246;1247;58133;-65
2022/01/01 09:56:24;;;;;;;44.70;28.00;;;;;;;6.14;88.84;97601.78;110219;1247;70541;-66
2022/01/01 09:58:52;;;;;;;51.20;33.20;;;;;;;6.17;88.90;97602.36;110223;1247;67833;-68
2022/01/01 10:01:21;;;;;;;39.60;25.10;;;;;;;6.14;88.71;97604.73;110102;1248;69595;-66
2022/01/01 10:03:52;;;;;;;72.30;47.60;;;;;;;6.13;89.01;97604.80;110242;1247;58160;-65
2022/01/01 10:06:22;;;;;;;78.40;52.40;;;;;;;6.10;89.09;97604.77;110229;1247;58038;-66
2022/01/01 10:08:57;;;;;;;;;;;;;;;6.08;89.16;97603.69;110228;1247;70658;-66
2022/01/01 10:11:27;;;;;;;55.00;34.70;;;;;;;6.05;89.38;97608.64;110079;1247;68569;-66
2022/01/01 10:13:57;;;;;;;67.50;43.40;;;;;;;6.02;89.41;97603.29;110186;1247;68695;-65
2022/01/01 10:16:25;;;;;;;58.20;35.40;;;;;;;6.02;89.57;97600.54;110132;1247;58102;-66
2022/01/01 10:18:55;;;;;;;68.40;43.40;;;;;;;6.02;89.62;97604.98;110046;1247;58137;-65
2022/01/01 10:21:31;;;;;;;62.10;40.10;;;;;;;6.03;89.82;97610.34;110114;1247;69273;-66
2022/01/01 10:24:29;;;;;;;58.60;36.90;;;;;;;6.05;89.65;97607.09;110106;1248;67860;-67
2022/01/01 10:30:31;;;;;;;62.60;36.90;;;;;;;6.09;89.49;97606.89;110185;1247;58128;-66
2022/01/01 10:33:00;;;;;;;45.90;28.60;;;;;;;6.11;89.36;97610.79;110222;1247;58161;-66
2022/01/01 10:35:40;;;;;;;43.60;27.70;;;;;;;6.14;89.20;97610.60;110237;1247;70040;-70
2022/01/01 10:38:13;;;;;;;38.80;26.60;;;;;;;6.23;88.92;97602.38;110127;1247;69331;-66
2022/01/01 10:40:43;;;;;;;37.70;24.00;;;;;;;6.30;88.67;97601.98;110191;1247;68630;-67
2022/01/01 10:43:15;;;;;;;33.90;21.00;;;;;;;6.34;88.65;97603.33;110112;1247;58063;-68
2022/01/01 10:45:47;;;;;;;59.30;37.60;;;;;;;6.38;88.55;97605.23;110234;1247;58135;-70
2022/01/01 10:51:23;;;;;;;63.30;37.90;;;;;;;6.36;88.74;97596.30;110075;1248;67849;-70
2022/01/01 10:54:03;;;;;;;44.40;29.40;;;;;;;6.36;88.55;97596.65;109950;1249;69928;-67
2022/01/01 10:56:40;;;;;;;55.80;34.10;;;;;;;6.42;88.70;97596.70;110133;1247;58093;-69
2022/01/01 10:59:41;;;;;;;50.70;32.60;;;;;;;6.44;88.53;97592.64;110142;1247;58129;-67
2022/01/01 11:02:26;;;;;;;53.10;32.80;;;;;;;6.46;88.46;97592.13;110258;1249;70333;-71
2022/01/01 11:05:07;;;;;;;54.50;35.90;;;;;;;6.49;88.54;97595.60;110239;1247;68690;-69
2022/01/01 11:07:52;;;;;;;44.20;28.50;;;;;;;6.52;88.62;97596.14;110041;1248;69744;-70
2022/01/01 11:10:27;;;;;;;49.60;31.40;;;;;;;6.60;88.60;97598.16;110040;1247;58148;-67
2022/01/01 11:13:11;;;;;;;53.30;33.80;;;;;;;6.66;88.52;97598.89;110059;1250;58130;-69
2022/01/01 11:15:40;;;;;;;42.90;25.70;;;;;;;6.70;88.32;97597.44;110177;1247;70354;-69
2022/01/01 11:18:09;;;;;;;42.50;27.40;;;;;;;6.75;88.19;97595.11;109992;1247;68611;-67
2022/01/01 11:20:39;;;;;;;45.10;30.60;;;;;;;6.75;87.98;97598.59;110235;1246;69250;-68
2022/01/01 11:23:10;;;;;;;56.30;37.00;;;;;;;6.74;88.01;97600.35;110177;1247;58116;-70
2022/01/01 11:25:41;;;;;;;37.10;27.00;;;;;;;6.79;88.05;97603.04;110248;1247;58165;-66
2022/01/01 11:28:13;;;;;;;46.10;31.40;;;;;;;6.84;87.83;97599.95;110229;1247;69978;-68
2022/01/01 11:31:08;;;;;;;40.70;26.50;;;;;;;6.89;87.63;97600.02;110221;1247;68588;-66
2022/01/01 11:33:43;;;;;;;50.60;32.80;;;;;;;6.97;87.32;97599.80;110203;1247;69540;-68
2022/01/01 11:36:23;;;;;;;52.90;35.90;;;;;;;6.95;87.17;97601.65;110186;1247;58064;-69
2022/01/01 11:38:53;;;;;;;51.60;32.20;;;;;;;6.93;87.32;97601.73;110215;1247;58021;-69
2022/01/01 11:41:22;;;;;;;57.20;37.40;;;;;;;6.94;87.50;97600.16;110172;1247;69215;-68
2022/01/01 11:43:53;;;;;;;37.70;23.10;;;;;;;6.93;87.46;97601.06;110098;1247;67960;-65
2022/01/01 11:46:27;;;;;;;38.10;24.30;;;;;;;6.92;87.70;97606.45;110027;1247;68889;-68